Time;durP1;ratioP1;P1;durP2;ratioP2;P2;SDS_P1;SDS_P2;PMS_P1;PMS_P2;Temp;Humidity;BMP_temperature;BMP_pressure;BME280_temperature;BME280_humidity;BME280_pressure;Samples;Min_cycle;Max_cycle;Signal;HPM_P1;HPM_P2
2022/03/28 00:01:09;;;;;;;7.68;3.28;;;;;;;;;;5074111;28;20036;-27
2022/03/28 00:03:35;;;;;;;7.68;3.92;;;;;;;;;;5073358;28;20072;-27
2022/03/28 00:06:01;;;;;;;5.47;3.38;;;;;;;;;;5073857;28;20505;-27
2022/03/28 00:08:28;;;;;;;6.97;3.55;;;;;;;;;;5073778;28;20036;-26
2022/03/28 00:10:54;;;;;;;4.53;2.97;;;;;;;;;;5073588;28;20032;-26
2022/03/28 00:13:21;;;;;;;5.45;3.45;;;;;;;;;;5073801;28;20529;-25
2022/03/28 00:15:47;;;;;;;4.47;3.13;;;;;;;;;;5055657;28;20048;-26
2022/03/28 00:18:14;;;;;;;3.80;2.92;;;;;;;;;;5073702;28;20048;-25
2022/03/28 00:20:40;;;;;;;8.52;3.53;;;;;;;;;;5073618;28;20040;-27
2022/03/28 00:23:06;;;;;;;8.40;3.13;;;;;;;;;;5073287;28;20432;-26
2022/03/28 00:25:34;;;;;;;5.22;3.28;;;;;;;;;;5038751;28;20119;-27
2022/03/28 00:28:00;;;;;;;8.15;2.97;;;;;;;;;;5073373;28;20447;-26
2022/03/28 00:30:26;;;;;;;7.80;3.53;;;;;;;;;;5073236;28;20044;-26
2022/03/28 00:32:52;;;;;;;6.85;4.13;;;;;;;;;;5073145;28;20043;-26
2022/03/28 00:35:19;;;;;;;7.45;3.42;;;;;;;;;;5055019;28;20448;-25
2022/03/28 00:37:46;;;;;;;5.22;3.10;;;;;;;;;;5073432;28;20044;-27
2022/03/28 00:40:12;;;;;;;24.55;4.20;;;;;;;;;;5073303;28;20482;-25
2022/03/28 00:42:38;;;;;;;10.23;3.47;;;;;;;;;;5073208;28;20083;-26
2022/03/28 00:45:06;;;;;;;8.25;3.97;;;;;;;;;;5073344;28;20090;-27
2022/03/28 00:47:32;;;;;;;49.83;5.45;;;;;;;;;;5072990;28;20118;-26
2022/03/28 00:49:59;;;;;;;8.05;3.05;;;;;;;;;;5054895;28;20043;-28
2022/03/28 00:52:25;;;;;;;6.15;3.00;;;;;;;;;;5072991;28;20070;-25
2022/03/28 00:54:51;;;;;;;22.33;3.65;;;;;;;;;;5055202;28;20047;-25
2022/03/28 00:57:18;;;;;;;9.20;2.90;;;;;;;;;;5055084;28;20505;-26
2022/03/28 00:59:44;;;;;;;4.30;2.60;;;;;;;;;;5072467;28;20047;-26
2022/03/28 01:02:11;;;;;;;4.22;2.75;;;;;;;;;;5072866;28;20090;-26
2022/03/28 01:04:39;;;;;;;22.23;3.58;;;;;;;;;;5072443;28;20040;-27
2022/03/28 01:07:06;;;;;;;5.35;2.90;;;;;;;;;;5072999;28;20044;-26
2022/03/28 01:09:33;;;;;;;6.35;2.92;;;;;;;;;;5072671;28;20037;-27
2022/03/28 01:11:59;;;;;;;4.95;2.60;;;;;;;;;;5073187;28;20181;-27
2022/03/28 01:14:26;;;;;;;3.97;2.47;;;;;;;;;;5073025;28;20044;-26
2022/03/28 01:19:37;;;;;;;6.50;2.80;;;;;;;;;;5071966;28;20075;-25
2022/03/28 01:22:03;;;;;;;7.10;3.03;;;;;;;;;;5072478;28;20126;-26
2022/03/28 01:24:31;;;;;;;9.93;3.42;;;;;;;;;;5072043;28;20051;-27
2022/03/28 01:26:58;;;;;;;5.78;3.22;;;;;;;;;;5072645;28;20398;-25
2022/03/28 01:29:25;;;;;;;8.82;3.53;;;;;;;;;;5072694;28;20475;-26
2022/03/28 01:31:51;;;;;;;17.00;3.55;;;;;;;;;;5072070;28;20086;-26
2022/03/28 01:34:18;;;;;;;6.40;3.28;;;;;;;;;;5072367;28;20488;-28
2022/03/28 01:36:45;;;;;;;8.95;3.50;;;;;;;;;;5072432;28;20086;-26
2022/03/28 01:39:12;;;;;;;7.00;3.30;;;;;;;;;;5071962;28;20051;-25
2022/03/28 01:41:38;;;;;;;22.00;3.88;;;;;;;;;;5072213;28;20040;-28
2022/03/28 01:44:05;;;;;;;6.38;3.60;;;;;;;;;;5072254;28;20051;-24
2022/03/28 01:46:31;;;;;;;26.20;4.32;;;;;;;;;;5071786;28;20040;-26
2022/03/28 01:48:57;;;;;;;6.43;3.45;;;;;;;;;;5071925;28;20166;-27
2022/03/28 01:51:23;;;;;;;13.95;3.30;;;;;;;;;;5071612;28;20474;-27
2022/03/28 01:53:49;;;;;;;13.25;3.75;;;;;;;;;;5071742;28;20036;-26
2022/03/28 01:56:15;;;;;;;7.85;3.58;;;;;;;;;;5072068;28;20045;-25
2022/03/28 01:58:41;;;;;;;6.75;3.95;;;;;;;;;;5071535;28;20066;-27
2022/03/28 02:01:07;;;;;;;9.65;4.10;;;;;;;;;;5071710;28;20493;-25
2022/03/28 02:03:34;;;;;;;7.45;4.10;;;;;;;;;;5071802;28;20052;-26
2022/03/28 02:06:00;;;;;;;7.18;4.07;;;;;;;;;;5071620;28;20094;-26
2022/03/28 02:08:26;;;;;;;10.32;4.63;;;;;;;;;;5071846;28;20044;-26
2022/03/28 02:10:52;;;;;;;8.75;4.57;;;;;;;;;;5071486;28;20040;-25
2022/03/28 02:13:18;;;;;;;17.27;5.15;;;;;;;;;;5071798;28;20036;-25
2022/03/28 02:15:44;;;;;;;10.00;4.32;;;;;;;;;;5071217;28;20040;-25
2022/03/28 02:18:11;;;;;;;34.75;5.60;;;;;;;;;;5071497;28;20051;-26
2022/03/28 02:20:38;;;;;;;15.20;5.32;;;;;;;;;;5071219;28;20211;-26
2022/03/28 02:23:04;;;;;;;9.55;4.72;;;;;;;;;;5071436;28;20487;-26
2022/03/28 02:25:30;;;;;;;8.38;4.88;;;;;;;;;;5071082;28;20040;-26
2022/03/28 02:27:56;;;;;;;9.90;5.00;;;;;;;;;;5073834;28;20394;-25
2022/03/28 02:30:22;;;;;;;36.60;6.70;;;;;;;;;;5074914;28;20043;-26
2022/03/28 02:32:48;;;;;;;15.65;5.05;;;;;;;;;;5075545;28;20119;-28
2022/03/28 02:35:14;;;;;;;9.35;5.75;;;;;;;;;;5075056;28;20094;-25
2022/03/28 02:37:41;;;;;;;23.52;5.95;;;;;;;;;;5074878;28;20047;-25
2022/03/28 02:40:08;;;;;;;12.63;6.00;;;;;;;;;;5074798;28;20036;-25
2022/03/28 02:42:34;;;;;;;8.15;5.50;;;;;;;;;;5074884;28;20044;-27
2022/03/28 02:45:00;;;;;;;16.48;6.20;;;;;;;;;;5074962;28;20040;-26
2022/03/28 02:47:26;;;;;;;26.77;7.25;;;;;;;;;;5074966;28;20450;-25
2022/03/28 02:49:52;;;;;;;10.70;5.93;;;;;;;;;;5074480;28;20036;-25
2022/03/28 02:52:18;;;;;;;16.48;7.28;;;;;;;;;;5074824;28;20032;-24
2022/03/28 02:54:44;;;;;;;23.08;7.28;;;;;;;;;;5074825;28;20480;-25
2022/03/28 02:57:10;;;;;;;31.58;8.45;;;;;;;;;;5074139;28;20044;-31
2022/03/28 02:59:36;;;;;;;11.48;5.95;;;;;;;;;;5074237;28;20150;-27
2022/03/28 03:02:02;;;;;;;20.35;6.85;;;;;;;;;;5074052;28;20070;-29
2022/03/28 03:04:29;;;;;;;24.13;7.65;;;;;;;;;;5074235;28;20486;-28
2022/03/28 03:06:56;;;;;;;14.63;6.88;;;;;;;;;;5074022;28;20041;-28
2022/03/28 03:09:22;;;;;;;16.55;6.93;;;;;;;;;;5073955;28;20043;-31
2022/03/28 03:11:48;;;;;;;22.15;6.90;;;;;;;;;;5073979;28;20032;-29
2022/03/28 03:14:14;;;;;;;11.10;7.10;;;;;;;;;;5074087;28;20062;-30
2022/03/28 03:16:40;;;;;;;23.90;7.90;;;;;;;;;;5072768;28;20390;-29
2022/03/28 03:19:07;;;;;;;14.13;6.78;;;;;;;;;;5073418;28;20052;-28
2022/03/28 03:21:33;;;;;;;19.92;7.35;;;;;;;;;;5056252;28;20087;-30
2022/03/28 03:23:59;;;;;;;44.95;9.18;;;;;;;;;;5074094;28;20114;-28
2022/03/28 03:26:25;;;;;;;18.05;7.82;;;;;;;;;;5073927;28;20045;-31
2022/03/28 03:28:54;;;;;;;15.68;7.18;;;;;;;;;;5073517;28;20036;-30
2022/03/28 03:31:20;;;;;;;14.43;7.47;;;;;;;;;;5073734;28;20120;-30
2022/03/28 03:33:46;;;;;;;22.33;7.88;;;;;;;;;;5073521;28;20048;-27
2022/03/28 03:36:12;;;;;;;25.13;8.65;;;;;;;;;;5055606;28;20127;-30
2022/03/28 03:38:38;;;;;;;28.15;9.57;;;;;;;;;;5072027;28;20040;-30
2022/03/28 03:41:04;;;;;;;21.10;8.60;;;;;;;;;;5039055;28;20103;-28
2022/03/28 03:43:30;;;;;;;24.15;8.75;;;;;;;;;;5055317;28;20080;-30
2022/03/28 03:45:57;;;;;;;16.52;7.78;;;;;;;;;;5073816;28;20043;-27
2022/03/28 03:48:24;;;;;;;20.48;8.55;;;;;;;;;;5073537;28;20040;-29
2022/03/28 03:50:50;;;;;;;19.25;8.00;;;;;;;;;;5073261;28;20037;-29
2022/03/28 03:53:19;;;;;;;12.63;8.00;;;;;;;;;;5073453;28;20044;-29
2022/03/28 03:55:45;;;;;;;18.67;8.27;;;;;;;;;;5069255;28;20555;-29
2022/03/28 03:58:11;;;;;;;12.73;7.97;;;;;;;;;;5068226;28;20068;-28
2022/03/28 04:00:38;;;;;;;17.30;8.15;;;;;;;;;;5060607;28;20048;-30
2022/03/28 04:03:04;;;;;;;12.80;7.90;;;;;;;;;;5043691;28;20076;-30
2022/03/28 04:05:30;;;;;;;15.02;7.93;;;;;;;;;;5064776;28;20043;-31
2022/03/28 04:07:56;;;;;;;14.35;7.55;;;;;;;;;;5072171;28;20058;-29
2022/03/28 04:10:23;;;;;;;17.30;8.38;;;;;;;;;;5072970;28;20044;-26
2022/03/28 04:12:49;;;;;;;15.43;8.85;;;;;;;;;;5073733;28;20087;-26
2022/03/28 04:15:15;;;;;;;24.05;9.40;;;;;;;;;;5073525;28;20039;-25
2022/03/28 04:17:45;;;;;;;23.65;8.48;;;;;;;;;;5072939;28;20123;-25
2022/03/28 04:20:12;;;;;;;15.25;8.10;;;;;;;;;;5073381;28;20072;-27
2022/03/28 04:22:39;;;;;;;12.73;7.60;;;;;;;;;;5073571;28;20489;-25
2022/03/28 04:25:06;;;;;;;17.48;8.73;;;;;;;;;;5073282;28;20055;-25
2022/03/28 04:27:32;;;;;;;18.92;8.35;;;;;;;;;;5073339;28;20478;-28
2022/03/28 04:29:58;;;;;;;12.63;8.25;;;;;;;;;;5073410;28;20044;-25
2022/03/28 04:32:24;;;;;;;25.63;9.23;;;;;;;;;;5072685;28;20037;-25
2022/03/28 04:34:52;;;;;;;20.45;8.27;;;;;;;;;;5073144;28;20036;-25
2022/03/28 04:37:18;;;;;;;13.68;8.35;;;;;;;;;;5071116;28;20067;-25
2022/03/28 04:39:44;;;;;;;15.88;8.93;;;;;;;;;;5071681;28;20090;-25
2022/03/28 04:42:10;;;;;;;15.25;8.95;;;;;;;;;;5072781;28;20037;-26
2022/03/28 04:44:36;;;;;;;11.82;7.80;;;;;;;;;;5072981;28;20128;-25
2022/03/28 04:47:03;;;;;;;15.68;9.18;;;;;;;;;;5072783;28;20033;-25
2022/03/28 04:49:29;;;;;;;17.92;8.98;;;;;;;;;;5070523;28;20079;-25
2022/03/28 04:51:55;;;;;;;12.95;8.20;;;;;;;;;;5064532;28;20071;-25
2022/03/28 04:54:21;;;;;;;19.35;9.95;;;;;;;;;;5052023;28;20044;-25
2022/03/28 04:56:47;;;;;;;18.48;9.85;;;;;;;;;;5052107;28;20048;-25
2022/03/28 04:59:13;;;;;;;23.98;11.15;;;;;;;;;;5052194;28;20120;-26
2022/03/28 05:01:39;;;;;;;20.63;10.52;;;;;;;;;;5052035;28;20224;-25
2022/03/28 05:04:05;;;;;;;15.45;10.43;;;;;;;;;;5051708;28;20140;-29
2022/03/28 05:06:32;;;;;;;37.20;11.90;;;;;;;;;;5051816;28;20504;-25
2022/03/28 05:08:58;;;;;;;21.60;10.70;;;;;;;;;;5051926;28;20446;-25
2022/03/28 05:11:24;;;;;;;20.88;10.95;;;;;;;;;;5051905;28;20482;-27
2022/03/28 05:13:51;;;;;;;17.95;10.75;;;;;;;;;;5051737;28;20545;-27
2022/03/28 05:16:17;;;;;;;17.55;10.82;;;;;;;;;;5051687;28;20396;-26
2022/03/28 05:18:43;;;;;;;17.58;11.07;;;;;;;;;;5051527;28;20037;-25
2022/03/28 05:21:09;;;;;;;18.70;10.93;;;;;;;;;;5051540;28;20490;-25
2022/03/28 05:23:35;;;;;;;14.90;9.98;;;;;;;;;;5048605;28;20047;-25
2022/03/28 05:26:02;;;;;;;19.33;11.13;;;;;;;;;;5048894;28;20147;-25
2022/03/28 05:28:28;;;;;;;19.73;11.18;;;;;;;;;;5049329;28;20029;-25
2022/03/28 05:30:57;;;;;;;19.52;10.88;;;;;;;;;;5049232;28;20360;-25
2022/03/28 05:33:23;;;;;;;29.52;12.18;;;;;;;;;;5049514;28;20041;-25
2022/03/28 05:35:50;;;;;;;21.60;12.50;;;;;;;;;;5049332;28;20044;-25
2022/03/28 05:38:16;;;;;;;22.85;13.77;;;;;;;;;;5050676;28;20048;-27
2022/03/28 05:40:42;;;;;;;18.92;11.80;;;;;;;;;;5051299;28;20048;-28
2022/03/28 05:43:09;;;;;;;17.83;11.63;;;;;;;;;;5051418;28;20041;-25
2022/03/28 05:45:36;;;;;;;24.50;12.73;;;;;;;;;;5051371;28;20110;-26
2022/03/28 05:48:02;;;;;;;18.27;12.40;;;;;;;;;;5051116;28;20045;-26
2022/03/28 05:50:28;;;;;;;22.27;13.63;;;;;;;;;;5050982;28;20041;-27
2022/03/28 05:52:54;;;;;;;22.25;13.95;;;;;;;;;;5051421;28;20041;-25
2022/03/28 05:55:21;;;;;;;20.95;13.82;;;;;;;;;;5051326;28;20127;-26
2022/03/28 05:57:47;;;;;;;23.58;14.48;;;;;;;;;;5051348;28;20048;-25
2022/03/28 06:00:14;;;;;;;22.83;14.68;;;;;;;;;;5050838;28;20072;-26
2022/03/28 06:02:43;;;;;;;20.75;13.23;;;;;;;;;;5050756;28;20072;-25
2022/03/28 06:05:10;;;;;;;21.08;14.07;;;;;;;;;;5050883;28;20053;-25
2022/03/28 06:07:36;;;;;;;23.75;15.10;;;;;;;;;;5051217;28;20049;-26
2022/03/28 06:10:03;;;;;;;20.35;12.70;;;;;;;;;;5050819;28;20036;-25
2022/03/28 06:12:29;;;;;;;21.85;14.07;;;;;;;;;;5051261;28;20487;-25
2022/03/28 06:14:55;;;;;;;21.80;13.27;;;;;;;;;;5050708;28;20052;-25
2022/03/28 06:17:22;;;;;;;22.75;14.20;;;;;;;;;;5051452;28;20494;-26
2022/03/28 06:19:48;;;;;;;21.52;13.70;;;;;;;;;;5050803;28;20085;-25
2022/03/28 06:22:14;;;;;;;21.75;14.05;;;;;;;;;;5051098;28;20040;-27
2022/03/28 06:24:40;;;;;;;19.63;13.40;;;;;;;;;;5050977;28;20037;-27
2022/03/28 06:27:06;;;;;;;17.02;11.43;;;;;;;;;;5050821;28;20047;-25
2022/03/28 06:29:32;;;;;;;18.67;12.20;;;;;;;;;;5050778;28;20037;-25
2022/03/28 06:31:58;;;;;;;20.83;12.73;;;;;;;;;;5050572;28;20120;-25
2022/03/28 06:34:24;;;;;;;17.05;11.27;;;;;;;;;;5050812;28;20076;-25
2022/03/28 06:36:50;;;;;;;16.08;11.73;;;;;;;;;;5050801;28;20455;-29
2022/03/28 06:39:16;;;;;;;16.10;11.02;;;;;;;;;;5050437;28;20076;-25
2022/03/28 06:41:43;;;;;;;23.08;12.05;;;;;;;;;;5050834;28;20128;-25
2022/03/28 06:44:11;;;;;;;18.20;12.52;;;;;;;;;;5050531;28;20375;-25
2022/03/28 06:46:39;;;;;;;15.52;11.20;;;;;;;;;;5050398;28;20044;-27
2022/03/28 06:49:05;;;;;;;20.23;11.85;;;;;;;;;;5050465;28;20041;-25
2022/03/28 06:51:31;;;;;;;19.38;10.85;;;;;;;;;;5050450;28;20041;-25
2022/03/28 06:53:57;;;;;;;18.30;11.77;;;;;;;;;;5050369;28;20081;-25
2022/03/28 06:56:23;;;;;;;21.35;12.63;;;;;;;;;;5050757;28;20041;-26
2022/03/28 06:58:49;;;;;;;20.60;13.00;;;;;;;;;;5050532;28;20041;-25
2022/03/28 07:01:15;;;;;;;19.42;11.90;;;;;;;;;;5050686;28;20483;-25
2022/03/28 07:03:41;;;;;;;20.13;11.60;;;;;;;;;;5050111;28;20037;-25
2022/03/28 07:06:10;;;;;;;22.17;13.18;;;;;;;;;;5050715;28;20044;-27
2022/03/28 07:08:36;;;;;;;19.58;11.88;;;;;;;;;;5050609;28;20056;-27
2022/03/28 07:11:02;;;;;;;18.83;11.77;;;;;;;;;;5050586;28;20487;-25
2022/03/28 07:13:29;;;;;;;19.67;12.43;;;;;;;;;;5051822;28;20040;-27
2022/03/28 07:15:55;;;;;;;20.42;12.43;;;;;;;;;;5053986;28;20040;-25
2022/03/28 07:18:22;;;;;;;18.77;11.98;;;;;;;;;;5053214;28;20037;-26
2022/03/28 07:20:50;;;;;;;24.65;11.88;;;;;;;;;;5053430;28;20051;-25
2022/03/28 07:23:17;;;;;;;19.02;12.02;;;;;;;;;;5053671;28;20083;-26
2022/03/28 07:25:44;;;;;;;21.63;12.60;;;;;;;;;;5053702;28;20133;-25
2022/03/28 07:28:12;;;;;;;19.48;11.48;;;;;;;;;;5053609;28;20323;-27
2022/03/28 07:30:38;;;;;;;23.98;11.93;;;;;;;;;;5053916;28;20040;-26
2022/03/28 07:33:06;;;;;;;19.13;12.35;;;;;;;;;;5053673;28;20036;-25
2022/03/28 07:35:32;;;;;;;18.73;12.45;;;;;;;;;;5053596;28;20067;-25
2022/03/28 07:37:58;;;;;;;19.55;12.15;;;;;;;;;;5053531;28;20079;-26
2022/03/28 07:40:25;;;;;;;17.42;11.05;;;;;;;;;;5053207;28;20379;-29
2022/03/28 07:42:53;;;;;;;15.40;11.05;;;;;;;;;;5053356;28;20055;-31
2022/03/28 07:45:19;;;;;;;17.42;11.60;;;;;;;;;;5053288;28;20406;-30
2022/03/28 07:47:45;;;;;;;20.38;12.77;;;;;;;;;;5053404;28;20037;-30
2022/03/28 07:50:11;;;;;;;20.58;12.90;;;;;;;;;;5053343;28;20041;-30
2022/03/28 07:52:38;;;;;;;17.27;11.00;;;;;;;;;;5052214;28;20040;-31
2022/03/28 07:55:04;;;;;;;17.83;11.95;;;;;;;;;;5053110;28;20349;-34
2022/03/28 07:57:31;;;;;;;18.15;12.65;;;;;;;;;;5052957;28;20306;-30
2022/03/28 07:59:57;;;;;;;17.08;11.60;;;;;;;;;;5052826;28;20251;-34
2022/03/28 08:02:24;;;;;;;19.23;12.63;;;;;;;;;;5052339;28;20032;-30
2022/03/28 08:04:50;;;;;;;20.17;12.75;;;;;;;;;;5052624;28;20049;-31
2022/03/28 08:07:16;;;;;;;19.48;12.07;;;;;;;;;;5052428;28;20107;-32
2022/03/28 08:09:43;;;;;;;16.27;11.65;;;;;;;;;;5052420;28;20044;-29
2022/03/28 08:12:10;;;;;;;18.42;11.55;;;;;;;;;;5052130;28;20041;-31
2022/03/28 08:14:37;;;;;;;16.73;11.30;;;;;;;;;;5053137;28;20048;-32
2022/03/28 08:17:03;;;;;;;19.92;13.20;;;;;;;;;;5052575;28;20045;-29
2022/03/28 08:19:30;;;;;;;22.10;13.02;;;;;;;;;;5052400;28;20045;-33
2022/03/28 08:21:56;;;;;;;19.33;13.10;;;;;;;;;;5051692;28;20049;-26
2022/03/28 08:24:22;;;;;;;19.15;12.45;;;;;;;;;;5052068;28;20048;-30
2022/03/28 08:26:51;;;;;;;18.20;11.38;;;;;;;;;;5051928;28;20033;-31
2022/03/28 08:29:17;;;;;;;18.70;11.63;;;;;;;;;;5051997;28;20041;-31
2022/03/28 08:31:43;;;;;;;18.02;11.20;;;;;;;;;;5051874;28;20041;-31
2022/03/28 08:34:10;;;;;;;19.42;11.55;;;;;;;;;;5052480;28;20487;-33
2022/03/28 08:36:36;;;;;;;17.27;12.05;;;;;;;;;;5052043;28;20292;-30
2022/03/28 08:39:03;;;;;;;19.02;12.95;;;;;;;;;;5051820;28;20486;-30
2022/03/28 08:41:29;;;;;;;17.88;11.20;;;;;;;;;;5051939;28;20045;-32
2022/03/28 08:43:55;;;;;;;17.98;11.55;;;;;;;;;;5051593;28;20120;-30
2022/03/28 08:46:21;;;;;;;15.88;11.07;;;;;;;;;;5051847;28;20049;-29
2022/03/28 08:48:48;;;;;;;16.15;10.18;;;;;;;;;;5051563;28;20037;-30
2022/03/28 08:51:19;;;;;;;16.52;10.60;;;;;;;;;;5051795;28;20470;-34
2022/03/28 08:53:45;;;;;;;19.65;12.32;;;;;;;;;;5051973;28;20376;-32
2022/03/28 08:56:11;;;;;;;18.83;12.10;;;;;;;;;;5051487;28;20036;-32
2022/03/28 08:58:37;;;;;;;17.58;10.75;;;;;;;;;;5051606;28;20074;-31
2022/03/28 09:01:04;;;;;;;16.95;11.75;;;;;;;;;;5051373;28;20506;-29
2022/03/28 09:03:41;;;;;;;14.85;10.32;;;;;;;;;;5051194;28;20037;-32
2022/03/28 09:06:25;;;;;;;17.75;11.27;;;;;;;;;;5051378;28;20105;-30
2022/03/28 09:08:52;;;;;;;14.93;10.73;;;;;;;;;;5051589;28;20443;-31
2022/03/28 09:11:21;;;;;;;15.52;9.52;;;;;;;;;;5051137;28;20120;-30
2022/03/28 09:13:47;;;;;;;13.95;9.55;;;;;;;;;;5051219;28;20102;-31
2022/03/28 09:16:19;;;;;;;13.43;8.63;;;;;;;;;;5051377;28;20507;-32
2022/03/28 09:18:45;;;;;;;14.45;8.95;;;;;;;;;;5033304;28;20044;-31
2022/03/28 09:21:16;;;;;;;14.05;9.10;;;;;;;;;;5050978;28;20045;-30
2022/03/28 09:23:44;;;;;;;12.52;8.52;;;;;;;;;;5051110;28;20045;-30
2022/03/28 09:26:20;;;;;;;13.05;8.05;;;;;;;;;;5051070;28;20446;-32
2022/03/28 09:28:53;;;;;;;11.25;8.00;;;;;;;;;;5033642;28;20056;-33
2022/03/28 09:31:30;;;;;;;13.93;8.48;;;;;;;;;;5051008;28;20040;-32
2022/03/28 09:34:06;;;;;;;13.23;8.52;;;;;;;;;;5033131;28;20132;-30
2022/03/28 09:36:38;;;;;;;11.70;7.93;;;;;;;;;;5049977;28;20049;-32
2022/03/28 09:39:09;;;;;;;12.07;7.68;;;;;;;;;;5050490;28;20044;-30
2022/03/28 09:41:35;;;;;;;11.40;7.63;;;;;;;;;;5050787;28;20508;-30
2022/03/28 09:44:01;;;;;;;12.98;8.10;;;;;;;;;;5050747;28;20041;-31
2022/03/28 09:46:28;;;;;;;11.02;7.05;;;;;;;;;;5050992;28;20068;-33
2022/03/28 09:48:57;;;;;;;8.45;6.50;;;;;;;;;;5050622;28;20041;-31
2022/03/28 09:51:25;;;;;;;10.88;6.97;;;;;;;;;;5050471;28;20037;-32
2022/03/28 09:53:51;;;;;;;10.60;6.13;;;;;;;;;;5050363;28;20045;-31
2022/03/28 09:56:18;;;;;;;9.60;6.93;;;;;;;;;;5050937;28;20041;-30
2022/03/28 09:58:56;;;;;;;8.80;6.53;;;;;;;;;;5050953;28;20048;-30
2022/03/28 10:01:35;;;;;;;10.48;6.40;;;;;;;;;;5050720;28;20095;-33
2022/03/28 10:04:03;;;;;;;8.23;6.90;;;;;;;;;;5050245;28;20045;-31
2022/03/28 10:06:30;;;;;;;9.10;6.70;;;;;;;;;;5050894;28;20037;-32
2022/03/28 10:08:56;;;;;;;8.45;6.38;;;;;;;;;;5050591;28;20029;-29
2022/03/28 10:11:22;;;;;;;8.65;6.03;;;;;;;;;;5050612;28;20064;-30
2022/03/28 10:13:48;;;;;;;10.63;6.53;;;;;;;;;;5050827;28;20075;-30
2022/03/28 10:16:15;;;;;;;8.75;6.57;;;;;;;;;;5050474;28;20045;-31
2022/03/28 10:18:42;;;;;;;7.90;5.40;;;;;;;;;;5051068;28;20072;-32
2022/03/28 10:21:15;;;;;;;7.50;5.97;;;;;;;;;;5050683;28;20124;-31
2022/03/28 10:23:53;;;;;;;7.88;5.97;;;;;;;;;;5050455;28;20491;-30
2022/03/28 10:26:24;;;;;;;8.45;6.65;;;;;;;;;;5050438;28;20033;-34
2022/03/28 10:29:00;;;;;;;9.20;6.45;;;;;;;;;;5050461;28;20072;-32
2022/03/28 10:31:27;;;;;;;7.45;6.40;;;;;;;;;;5050252;28;20041;-30
2022/03/28 10:33:54;;;;;;;6.93;5.85;;;;;;;;;;5050958;28;20049;-32
2022/03/28 10:36:28;;;;;;;7.72;6.78;;;;;;;;;;5050856;28;20091;-33
2022/03/28 10:38:57;;;;;;;10.38;6.57;;;;;;;;;;5050757;28;20132;-32
2022/03/28 10:41:25;;;;;;;9.32;6.82;;;;;;;;;;5050494;28;20486;-31
2022/03/28 10:43:51;;;;;;;8.25;6.25;;;;;;;;;;5050459;28;20124;-29
2022/03/28 10:46:19;;;;;;;9.10;6.93;;;;;;;;;;5050864;28;20037;-30
2022/03/28 10:48:49;;;;;;;8.70;6.95;;;;;;;;;;5052598;28;20048;-32
2022/03/28 10:51:16;;;;;;;8.60;6.10;;;;;;;;;;5054087;28;20033;-32
2022/03/28 10:53:47;;;;;;;7.50;6.03;;;;;;;;;;5054192;28;20041;-31
2022/03/28 10:56:25;;;;;;;9.82;6.68;;;;;;;;;;5054201;28;20057;-30
2022/03/28 10:58:56;;;;;;;8.88;6.90;;;;;;;;;;5054099;28;20094;-30
2022/03/28 11:01:22;;;;;;;8.20;6.72;;;;;;;;;;5054039;28;20049;-30
2022/03/28 11:03:55;;;;;;;9.98;6.47;;;;;;;;;;5053542;28;20045;-32
2022/03/28 11:06:41;;;;;;;8.02;6.38;;;;;;;;;;5053666;28;20037;-33
2022/03/28 11:09:08;;;;;;;8.60;6.25;;;;;;;;;;5053733;28;20048;-32
2022/03/28 11:11:34;;;;;;;6.80;6.05;;;;;;;;;;5053639;28;20087;-31
2022/03/28 11:14:00;;;;;;;8.73;6.70;;;;;;;;;;5053927;28;20453;-33
2022/03/28 11:16:39;;;;;;;8.93;6.95;;;;;;;;;;5036069;28;20115;-30
2022/03/28 11:19:22;;;;;;;7.03;6.32;;;;;;;;;;5053667;28;20045;-32
2022/03/28 11:22:03;;;;;;;7.68;6.00;;;;;;;;;;5053211;28;20037;-30
2022/03/28 11:24:41;;;;;;;7.30;6.60;;;;;;;;;;5053838;28;20382;-31
2022/03/28 11:27:08;;;;;;;7.05;6.18;;;;;;;;;;5053607;28;20100;-27
2022/03/28 11:29:34;;;;;;;6.60;6.00;;;;;;;;;;5053899;28;20041;-27
2022/03/28 11:32:19;;;;;;;8.05;6.07;;;;;;;;;;5053789;28;20032;-28
2022/03/28 11:34:53;;;;;;;7.25;6.32;;;;;;;;;;5054366;28;20044;-27
2022/03/28 11:37:23;;;;;;;7.68;6.28;;;;;;;;;;5053697;28;20560;-26
2022/03/28 11:40:03;;;;;;;6.38;5.68;;;;;;;;;;5035584;28;20037;-28
2022/03/28 11:42:30;;;;;;;8.25;6.47;;;;;;;;;;5053849;28;20193;-26
2022/03/28 11:44:57;;;;;;;7.40;6.57;;;;;;;;;;5053794;28;20045;-27
2022/03/28 11:47:24;;;;;;;6.95;6.18;;;;;;;;;;5053462;28;20033;-28
2022/03/28 11:49:54;;;;;;;7.88;6.25;;;;;;;;;;5053574;28;20041;-28
2022/03/28 11:52:21;;;;;;;7.10;6.40;;;;;;;;;;5053176;28;20037;-27
2022/03/28 11:54:47;;;;;;;7.90;6.28;;;;;;;;;;5053188;28;20052;-27
2022/03/28 12:00:18;;;;;;;6.93;6.20;;;;;;;;;;5052307;28;20100;-28
2022/03/28 12:02:55;;;;;;;7.93;6.85;;;;;;;;;;5053776;28;20391;-28
2022/03/28 12:05:31;;;;;;;7.28;6.57;;;;;;;;;;5054376;28;20059;-29
2022/03/28 12:07:59;;;;;;;7.53;6.82;;;;;;;;;;5019798;28;20069;-28
2022/03/28 12:10:28;;;;;;;6.93;6.30;;;;;;;;;;5054026;28;20120;-28
2022/03/28 12:12:56;;;;;;;6.60;5.97;;;;;;;;;;5053249;28;20508;-28
2022/03/28 12:15:25;;;;;;;7.68;6.97;;;;;;;;;;5052663;28;20067;-28
2022/03/28 12:17:52;;;;;;;7.65;6.82;;;;;;;;;;5052712;28;20044;-29
2022/03/28 12:20:21;;;;;;;8.20;7.50;;;;;;;;;;5052550;28;20406;-28
2022/03/28 12:22:47;;;;;;;7.53;6.85;;;;;;;;;;5052576;28;20045;-29
2022/03/28 12:25:28;;;;;;;6.95;6.35;;;;;;;;;;5052455;28;20045;-28
2022/03/28 12:27:55;;;;;;;7.65;6.95;;;;;;;;;;5052810;28;20037;-30
2022/03/28 12:30:25;;;;;;;7.40;6.80;;;;;;;;;;5052791;28;20037;-28
2022/03/28 12:32:52;;;;;;;8.05;6.93;;;;;;;;;;5052785;28;20033;-29
2022/03/28 12:35:21;;;;;;;7.55;6.85;;;;;;;;;;5052418;28;20045;-28
2022/03/28 12:37:56;;;;;;;7.63;6.93;;;;;;;;;;5052435;28;20059;-29
2022/03/28 12:40:28;;;;;;;8.27;7.55;;;;;;;;;;5052429;28;20044;-28
2022/03/28 12:42:55;;;;;;;8.32;7.50;;;;;;;;;;5052476;28;20121;-29
2022/03/28 12:45:25;;;;;;;7.00;6.40;;;;;;;;;;5052038;28;20052;-27
2022/03/28 12:48:06;;;;;;;7.22;6.53;;;;;;;;;;5052438;28;20036;-29
2022/03/28 12:50:32;;;;;;;8.40;7.43;;;;;;;;;;5052527;28;20044;-29
2022/03/28 12:53:15;;;;;;;7.82;7.13;;;;;;;;;;5034415;28;20044;-29
2022/03/28 12:55:43;;;;;;;8.20;7.18;;;;;;;;;;5052375;28;20175;-29
2022/03/28 12:58:09;;;;;;;13.65;7.45;;;;;;;;;;5052252;28;20383;-29
2022/03/28 13:00:35;;;;;;;8.60;7.80;;;;;;;;;;5051924;28;20048;-28
2022/03/28 13:03:02;;;;;;;7.78;7.18;;;;;;;;;;5052125;28;20513;-28
2022/03/28 13:05:31;;;;;;;8.93;8.13;;;;;;;;;;5051274;28;20045;-29
2022/03/28 13:08:11;;;;;;;8.43;7.63;;;;;;;;;;5034002;28;20037;-29
2022/03/28 13:10:38;;;;;;;9.27;8.38;;;;;;;;;;5051680;28;20508;-30
2022/03/28 13:13:05;;;;;;;10.43;7.78;;;;;;;;;;5051884;28;20167;-29
2022/03/28 13:15:40;;;;;;;8.93;7.97;;;;;;;;;;5051167;28;20044;-28
2022/03/28 13:18:09;;;;;;;8.52;7.72;;;;;;;;;;5033283;28;20135;-28
2022/03/28 13:20:37;;;;;;;9.05;8.10;;;;;;;;;;5051611;28;20037;-28
2022/03/28 13:23:04;;;;;;;9.98;8.70;;;;;;;;;;5051665;28;20546;-28
2022/03/28 13:25:40;;;;;;;9.90;8.88;;;;;;;;;;5051332;28;20037;-28
2022/03/28 13:28:09;;;;;;;10.40;8.43;;;;;;;;;;5051770;28;20044;-28
2022/03/28 13:30:42;;;;;;;9.80;8.73;;;;;;;;;;5051069;28;20041;-28
2022/03/28 13:33:12;;;;;;;9.85;8.95;;;;;;;;;;5051330;28;20041;-31
2022/03/28 13:35:39;;;;;;;9.48;8.55;;;;;;;;;;5050986;28;20072;-33
2022/03/28 13:38:10;;;;;;;9.32;8.45;;;;;;;;;;5051070;28;20415;-32
2022/03/28 13:40:37;;;;;;;10.63;9.52;;;;;;;;;;5051367;28;20051;-31
2022/03/28 13:43:03;;;;;;;11.07;9.55;;;;;;;;;;5065574;28;20398;-31
2022/03/28 13:45:30;;;;;;;10.55;9.55;;;;;;;;;;5068951;28;20440;-30
2022/03/28 13:47:56;;;;;;;10.52;9.52;;;;;;;;;;5068976;28;20040;-32
2022/03/28 13:50:24;;;;;;;10.95;9.60;;;;;;;;;;5035719;28;20292;-33
2022/03/28 13:52:50;;;;;;;10.45;9.43;;;;;;;;;;5054133;28;20044;-31
2022/03/28 13:55:17;;;;;;;11.15;10.02;;;;;;;;;;5070549;28;20101;-32
2022/03/28 13:57:44;;;;;;;10.77;9.90;;;;;;;;;;5070475;28;20067;-31
2022/03/28 14:00:11;;;;;;;11.85;10.68;;;;;;;;;;5050785;28;20430;-30
2022/03/28 14:02:37;;;;;;;11.98;10.82;;;;;;;;;;5058704;28;20132;-33
2022/03/28 14:05:04;;;;;;;11.55;10.60;;;;;;;;;;5053267;28;20045;-32
2022/03/28 14:07:31;;;;;;;11.90;10.88;;;;;;;;;;5049935;28;20041;-31
2022/03/28 14:09:57;;;;;;;12.00;10.95;;;;;;;;;;5049272;28;20215;-31
2022/03/28 14:12:27;;;;;;;12.38;11.07;;;;;;;;;;5049899;28;20120;-31
2022/03/28 14:14:53;;;;;;;12.35;11.25;;;;;;;;;;5050937;28;20382;-31
2022/03/28 14:17:19;;;;;;;12.15;10.93;;;;;;;;;;5050417;28;20044;-31
2022/03/28 14:19:45;;;;;;;12.10;11.02;;;;;;;;;;5056195;28;20051;-32
2022/03/28 14:22:11;;;;;;;11.35;10.35;;;;;;;;;;5057923;28;20517;-31
2022/03/28 14:24:37;;;;;;;12.88;11.77;;;;;;;;;;5073600;28;20394;-31
2022/03/28 14:27:04;;;;;;;12.13;11.07;;;;;;;;;;5074745;28;20051;-33
2022/03/28 14:29:30;;;;;;;12.45;11.32;;;;;;;;;;5074137;28;20036;-31
2022/03/28 14:31:56;;;;;;;12.73;11.40;;;;;;;;;;5073711;28;20043;-31
2022/03/28 14:34:22;;;;;;;12.40;11.20;;;;;;;;;;5074049;28;20044;-28
2022/03/28 14:36:49;;;;;;;13.73;12.52;;;;;;;;;;5074172;28;20044;-30
2022/03/28 14:39:15;;;;;;;14.27;11.13;;;;;;;;;;5074198;28;20045;-30